Time;durP1;ratioP1;P1;durP2;ratioP2;P2;SDS_P1;SDS_P2;PMS_P1;PMS_P2;Temp;Humidity;BMP_temperature;BMP_pressure;BME280_temperature;BME280_humidity;BME280_pressure;Samples;Min_cycle;Max_cycle;Signal;HPM_P1;HPM_P2
2023/03/31 00:00:51;;;;;;;;;;;;;;;19.49;58.30;99047.50;2079489;28;19928;-55
2023/03/31 00:01:53;;;;;;;;;;;;;;;19.48;58.28;99052.06;2079632;28;20002;-55
2023/03/31 00:02:56;;;;;;;;;;;;;;;19.47;58.03;99036.91;2077338;28;19939;-52
2023/03/31 00:04:03;;;;;;;;;;;;;;;19.47;57.83;99033.41;2074251;28;19932;-54
2023/03/31 00:05:05;;;;;;;;;;;;;;;19.47;58.09;99036.09;2075522;28;19928;-53
2023/03/31 00:06:05;;;;;;;;;;;;;;;19.46;58.31;99031.75;2079579;28;19933;-53
2023/03/31 00:07:07;;;;;;;;;;;;;;;19.47;58.07;99030.72;2078144;28;19932;-55
2023/03/31 00:08:12;;;;;;;;;;;;;;;19.46;58.13;99031.75;2078546;28;19928;-53
2023/03/31 00:09:17;;;;;;;;;;;;;;;19.45;57.91;99032.78;2075441;28;19936;-51
2023/03/31 00:10:18;;;;;;;;;;;;;;;19.47;57.78;99028.03;2073614;28;19967;-52
2023/03/31 00:11:20;;;;;;;;;;;;;;;19.45;57.93;99025.56;2076374;28;19939;-55
2023/03/31 00:12:20;;;;;;;;;;;;;;;19.43;58.04;99025.75;2080660;28;19933;-55
2023/03/31 00:13:22;;;;;;;;;;;;;;;19.42;58.01;99016.03;2068936;28;19990;-52
2023/03/31 00:14:22;;;;;;;;;;;;;;;19.42;58.04;99021.41;2077822;28;19928;-54
2023/03/31 00:15:24;;;;;;;;;;;;;;;19.43;58.07;99017.66;2078291;28;19929;-57
2023/03/31 00:16:25;;;;;;;;;;;;;;;19.41;58.01;99014.34;2078077;28;20403;-49
2023/03/31 00:17:26;;;;;;;;;;;;;;;19.41;58.00;99019.72;2074949;28;20023;-51
2023/03/31 00:18:28;;;;;;;;;;;;;;;19.41;58.23;99011.66;2079499;28;19924;-57
2023/03/31 00:19:32;;;;;;;;;;;;;;;19.42;57.88;99012.50;2079221;28;19932;-58
2023/03/31 00:20:32;;;;;;;;;;;;;;;19.40;57.92;99001.94;2083263;28;19940;-55
2023/03/31 00:21:35;;;;;;;;;;;;;;;19.39;57.99;99002.97;2080668;28;20500;-58
2023/03/31 00:22:37;;;;;;;;;;;;;;;19.41;58.05;99006.28;2080695;28;20013;-55
2023/03/31 00:23:40;;;;;;;;;;;;;;;19.40;58.07;99003.78;2083536;28;19967;-52
2023/03/31 00:24:40;;;;;;;;;;;;;;;19.39;57.99;98996.78;2082805;28;20915;-52
2023/03/31 00:25:44;;;;;;;;;;;;;;;19.37;57.98;99001.50;2082234;28;19928;-54
2023/03/31 00:26:45;;;;;;;;;;;;;;;19.37;58.09;98996.94;2086598;28;19939;-56
2023/03/31 00:27:49;;;;;;;;;;;;;;;19.38;57.90;98989.72;2081539;28;20424;-52
2023/03/31 00:28:49;;;;;;;;;;;;;;;19.38;58.05;98997.78;2087813;28;19925;-56
2023/03/31 00:29:51;;;;;;;;;;;;;;;19.38;58.24;99003.16;2088639;28;19935;-55
2023/03/31 00:30:52;;;;;;;;;;;;;;;19.37;58.00;99001.50;2090167;28;19929;-54
2023/03/31 00:31:54;;;;;;;;;;;;;;;19.37;57.84;99001.50;2088861;28;19960;-51
2023/03/31 00:32:55;;;;;;;;;;;;;;;19.36;58.00;99008.75;2087883;28;19943;-56
2023/03/31 00:33:57;;;;;;;;;;;;;;;19.37;57.96;99002.34;2088168;28;20027;-51
2023/03/31 00:34:57;;;;;;;;;;;;;;;19.34;58.04;99005.41;2090704;28;19932;-54
2023/03/31 00:36:04;;;;;;;;;;;;;;;19.34;58.01;99005.41;2088727;28;20330;-53
2023/03/31 00:37:05;;;;;;;;;;;;;;;19.34;57.69;99009.97;2088121;28;19985;-51
2023/03/31 00:38:07;;;;;;;;;;;;;;;19.32;58.10;99002.09;2089003;28;19928;-49
2023/03/31 00:39:09;;;;;;;;;;;;;;;19.33;58.06;99005.59;2087100;28;19940;-53
2023/03/31 00:40:11;;;;;;;;;;;;;;;19.32;57.92;98996.72;2087848;28;19932;-57
2023/03/31 00:41:11;;;;;;;;;;;;;;;19.31;57.82;98984.31;2089096;28;19931;-51
2023/03/31 00:42:13;;;;;;;;;;;;;;;19.30;57.95;98977.25;2089013;28;20016;-52
2023/03/31 00:43:27;;;;;;;;;;;;;;;19.30;58.08;98971.88;2087912;28;19936;-52
2023/03/31 00:44:29;;;;;;;;;;;;;;;19.30;58.10;98979.13;2077581;28;19936;-54
2023/03/31 00:45:30;;;;;;;;;;;;;;;19.28;58.14;98976.66;2075698;28;19968;-53
2023/03/31 00:46:34;;;;;;;;;;;;;;;19.28;58.11;98983.84;2078262;28;20572;-53
2023/03/31 00:47:34;;;;;;;;;;;;;;;19.27;58.20;98982.22;2080470;28;20829;-56
2023/03/31 00:48:37;;;;;;;;;;;;;;;19.27;57.84;98990.28;2079233;28;19933;-56
2023/03/31 00:49:40;;;;;;;;;;;;;;;19.26;58.17;98989.44;2078313;28;19939;-53
2023/03/31 00:50:45;;;;;;;;;;;;;;;19.26;58.07;98989.44;2077158;28;20412;-57
2023/03/31 00:51:47;;;;;;;;;;;;;;;19.26;57.95;98994.84;2079511;28;20529;-54
2023/03/31 00:52:51;;;;;;;;;;;;;;;19.25;57.93;98992.31;2077364;28;19935;-54
2023/03/31 00:53:56;;;;;;;;;;;;;;;19.25;58.08;99000.38;2081357;28;19929;-55
2023/03/31 00:55:01;;;;;;;;;;;;;;;19.24;58.14;98991.50;2078580;28;20387;-54
2023/03/31 00:56:05;;;;;;;;;;;;;;;19.25;58.06;98995.88;2079182;28;22255;-56
2023/03/31 00:57:08;;;;;;;;;;;;;;;19.24;58.45;98988.81;2079365;28;20551;-58
2023/03/31 00:58:13;;;;;;;;;;;;;;;19.22;57.85;98988.16;2081005;28;19981;-57
2023/03/31 00:59:15;;;;;;;;;;;;;;;19.23;57.99;98989.03;2086024;28;20510;-56
2023/03/31 01:00:17;;;;;;;;;;;;;;;19.23;57.81;98983.66;2079128;28;19929;-57
2023/03/31 01:01:19;;;;;;;;;;;;;;;19.24;57.91;98982.59;2080629;28;19932;-58
2023/03/31 01:02:21;;;;;;;;;;;;;;;19.22;57.73;98980.09;2079485;28;20437;-58
2023/03/31 01:03:23;;;;;;;;;;;;;;;19.21;58.11;98975.75;2080999;28;19932;-49
2023/03/31 01:04:24;;;;;;;;;;;;;;;19.22;57.95;98974.72;2079795;28;22303;-53
2023/03/31 01:05:29;;;;;;;;;;;;;;;19.20;57.90;98974.94;2078879;28;19936;-55
2023/03/31 01:06:29;;;;;;;;;;;;;;;19.19;57.83;98977.81;2067712;28;19928;-58
2023/03/31 01:07:35;;;;;;;;;;;;;;;19.19;58.02;98978.69;2080944;28;20453;-57
2023/03/31 01:08:37;;;;;;;;;;;;;;;19.19;57.81;98983.19;2078926;28;20048;-53
2023/03/31 01:09:40;;;;;;;;;;;;;;;19.20;57.83;98979.50;2079702;28;19936;-54
2023/03/31 01:10:45;;;;;;;;;;;;;;;19.18;57.95;98970.78;2075367;28;20018;-51
2023/03/31 01:11:47;;;;;;;;;;;;;;;19.17;57.86;98959.22;2081272;28;19939;-54
2023/03/31 01:12:50;;;;;;;;;;;;;;;19.18;57.77;98957.34;2071982;28;20912;-53
2023/03/31 01:13:54;;;;;;;;;;;;;;;19.17;57.66;98955.69;2079622;28;21850;-55
2023/03/31 01:14:55;;;;;;;;;;;;;;;19.18;57.98;98946.59;2083150;28;19975;-51
2023/03/31 01:15:56;;;;;;;;;;;;;;;19.16;57.93;98944.09;2077638;28;19929;-53
2023/03/31 01:16:57;;;;;;;;;;;;;;;19.15;58.03;98931.69;2077871;28;19958;-54
2023/03/31 01:17:59;;;;;;;;;;;;;;;19.16;58.02;98937.88;2069571;28;20006;-52
2023/03/31 01:19:00;;;;;;;;;;;;;;;19.15;58.14;98938.94;2075540;28;19932;-50
2023/03/31 01:20:12;;;;;;;;;;;;;;;19.15;58.03;98945.13;2079658;28;19955;-52
2023/03/31 01:21:31;;;;;;;;;;;;;;;19.14;58.09;98948.84;2079308;28;19978;-50
2023/03/31 01:22:51;;;;;;;;;;;;;;;19.14;57.79;98953.41;2080260;28;19933;-52
2023/03/31 01:24:06;;;;;;;;;;;;;;;19.14;57.74;98953.41;2082935;28;19929;-54
2023/03/31 01:25:31;;;;;;;;;;;;;;;19.13;58.13;98944.50;2078395;27;19925;-52
2023/03/31 01:26:41;;;;;;;;;;;;;;;19.12;58.21;98947.41;2077417;28;20008;-53
2023/03/31 01:27:49;;;;;;;;;;;;;;;19.12;58.00;98939.31;2079975;28;19997;-54
2023/03/31 01:28:53;;;;;;;;;;;;;;;19.10;57.79;98936.00;2081945;28;19967;-51
2023/03/31 01:30:04;;;;;;;;;;;;;;;19.10;58.03;98936.81;2083759;28;20042;-50
2023/03/31 01:31:20;;;;;;;;;;;;;;;19.13;57.80;98932.91;2080705;28;19935;-54
2023/03/31 01:32:51;;;;;;;;;;;;;;;19.11;58.08;98933.13;2053793;28;20367;-52
2023/03/31 01:34:12;;;;;;;;;;;;;;;19.10;57.97;98933.31;2079203;28;20047;-53
2023/03/31 01:35:28;;;;;;;;;;;;;;;19.09;57.78;98932.50;2074728;28;20802;-50
2023/03/31 01:36:50;;;;;;;;;;;;;;;19.08;57.60;98924.59;2046499;28;19971;-53
2023/03/31 01:38:16;;;;;;;;;;;;;;;19.07;58.05;98918.41;2078945;28;20039;-53
2023/03/31 01:39:42;;;;;;;;;;;;;;;19.05;57.83;98923.16;2079602;28;19977;-53
2023/03/31 01:40:58;;;;;;;;;;;;;;;19.06;58.16;98915.94;2078149;28;19928;-54
2023/03/31 01:42:04;;;;;;;;;;;;;;;19.06;57.94;98921.31;2069885;28;19933;-57
2023/03/31 01:43:10;;;;;;;;;;;;;;;19.06;57.81;98918.63;2077156;28;20038;-57
2023/03/31 01:44:15;;;;;;;;;;;;;;;19.06;57.81;98918.63;2079695;28;19987;-55
2023/03/31 01:45:22;;;;;;;;;;;;;;;19.04;57.77;98921.50;2084825;28;19972;-53
2023/03/31 01:46:27;;;;;;;;;;;;;;;19.03;57.79;98914.47;2083210;28;19929;-52
2023/03/31 01:47:31;;;;;;;;;;;;;;;19.05;58.04;98911.56;2074956;28;21070;-57
2023/03/31 01:48:40;;;;;;;;;;;;;;;19.03;57.62;98906.41;2076332;28;19989;-57
2023/03/31 01:49:45;;;;;;;;;;;;;;;19.03;57.85;98900.19;2076291;28;19942;-53
2023/03/31 01:50:47;;;;;;;;;;;;;;;19.03;57.98;98900.19;2078535;28;20432;-54
2023/03/31 01:51:52;;;;;;;;;;;;;;;19.03;57.93;98902.88;2075409;28;20881;-52
2023/03/31 01:52:57;;;;;;;;;;;;;;;19.01;57.79;98904.94;2075876;28;19925;-54
2023/03/31 01:54:01;;;;;;;;;;;;;;;19.01;58.07;98897.72;2078481;28;21136;-50
2023/03/31 01:55:07;;;;;;;;;;;;;;;19.00;58.09;98890.69;2079439;28;20402;-52
2023/03/31 01:56:13;;;;;;;;;;;;;;;19.01;57.94;98889.66;2076591;28;19955;-52
2023/03/31 01:57:16;;;;;;;;;;;;;;;19.00;57.98;98888.00;2077270;28;20015;-57
2023/03/31 01:58:21;;;;;;;;;;;;;;;18.99;58.08;98883.63;2076906;28;19935;-52
2023/03/31 01:59:25;;;;;;;;;;;;;;;19.01;57.77;98883.44;2076865;28;19935;-53
2023/03/31 02:00:32;;;;;;;;;;;;;;;18.97;58.14;98886.53;2077562;28;19943;-53
2023/03/31 02:01:36;;;;;;;;;;;;;;;18.97;57.88;98885.69;2082125;28;19925;-54
2023/03/31 02:02:40;;;;;;;;;;;;;;;18.97;57.55;98894.59;2073108;28;19932;-55
2023/03/31 02:03:44;;;;;;;;;;;;;;;19.00;58.00;98889.81;2077221;28;19982;-52
2023/03/31 02:04:48;;;;;;;;;;;;;;;18.96;57.87;98884.03;2075317;28;19936;-54
2023/03/31 02:05:52;;;;;;;;;;;;;;;18.97;57.83;98883.84;2074851;28;19932;-52
2023/03/31 02:06:56;;;;;;;;;;;;;;;18.96;57.89;98884.84;2076254;28;21723;-52
2023/03/31 02:07:59;;;;;;;;;;;;;;;18.95;57.99;98880.53;2077065;28;28683;-55
2023/03/31 02:09:02;;;;;;;;;;;;;;;18.95;57.83;98877.00;2080630;28;19980;-57
2023/03/31 02:10:06;;;;;;;;;;;;;;;18.96;57.58;98884.03;2081197;28;20826;-57
2023/03/31 02:11:08;;;;;;;;;;;;;;;18.96;57.81;98884.03;2077991;28;20043;-55
2023/03/31 02:12:10;;;;;;;;;;;;;;;18.95;57.54;98877.00;2072360;28;19972;-57
2023/03/31 02:13:13;;;;;;;;;;;;;;;18.94;57.93;98873.50;2077120;28;19933;-52
2023/03/31 02:14:17;;;;;;;;;;;;;;;18.94;57.70;98868.13;2078043;28;20731;-56
2023/03/31 02:15:22;;;;;;;;;;;;;;;18.95;57.91;98864.41;2073186;28;20026;-57
2023/03/31 02:16:25;;;;;;;;;;;;;;;18.94;58.04;98861.88;2078195;28;20035;-54
2023/03/31 02:17:29;;;;;;;;;;;;;;;18.94;57.84;98856.50;2078833;28;20689;-52
2023/03/31 02:18:31;;;;;;;;;;;;;;;18.93;57.87;98858.38;2077662;28;19928;-52
2023/03/31 02:19:35;;;;;;;;;;;;;;;18.92;57.83;98848.66;2078612;28;20037;-54
2023/03/31 02:20:36;;;;;;;;;;;;;;;18.92;57.83;98848.66;2079464;28;19973;-55
2023/03/31 02:21:39;;;;;;;;;;;;;;;18.92;57.69;98843.28;2076139;28;20317;-52
2023/03/31 02:22:42;;;;;;;;;;;;;;;18.91;58.01;98847.00;2082475;27;19932;-55
2023/03/31 02:23:44;;;;;;;;;;;;;;;18.90;57.78;98849.91;2080203;28;19932;-55
2023/03/31 02:24:46;;;;;;;;;;;;;;;18.91;57.82;98857.75;2084136;28;19929;-55
2023/03/31 02:25:51;;;;;;;;;;;;;;;18.90;57.96;98860.66;2083698;28;20005;-53
2023/03/31 02:26:54;;;;;;;;;;;;;;;18.90;57.82;98852.59;2085504;28;19967;-54
2023/03/31 02:27:57;;;;;;;;;;;;;;;18.90;57.74;98849.91;2084630;28;19936;-53
2023/03/31 02:28:58;;;;;;;;;;;;;;;18.88;57.72;98850.09;2085582;28;20011;-53
2023/03/31 02:30:00;;;;;;;;;;;;;;;18.89;57.80;98851.75;2083876;28;19943;-53
2023/03/31 02:31:05;;;;;;;;;;;;;;;18.90;58.02;98850.72;2085695;28;20443;-56
2023/03/31 02:32:11;;;;;;;;;;;;;;;18.89;57.96;98854.44;2083473;28;20319;-54
2023/03/31 02:33:12;;;;;;;;;;;;;;;18.89;57.77;98845.56;2084871;28;19936;-55
2023/03/31 02:34:13;;;;;;;;;;;;;;;18.87;57.85;98835.00;2085493;28;19925;-52
2023/03/31 02:35:16;;;;;;;;;;;;;;;18.87;58.17;98840.38;2086005;28;19982;-52
2023/03/31 02:36:18;;;;;;;;;;;;;;;18.87;57.82;98835.00;2085307;28;19924;-50
2023/03/31 02:37:18;;;;;;;;;;;;;;;18.88;57.95;98833.97;2085214;28;19933;-50
2023/03/31 02:38:20;;;;;;;;;;;;;;;18.88;58.05;98831.28;2084530;28;19934;-54
2023/03/31 02:39:24;;;;;;;;;;;;;;;18.88;57.95;98825.91;2086080;28;19932;-57
2023/03/31 02:40:26;;;;;;;;;;;;;;;18.87;57.87;98821.56;2080774;28;19936;-57
2023/03/31 02:41:28;;;;;;;;;;;;;;;18.87;58.20;98826.94;2083838;28;19933;-51
2023/03/31 02:42:29;;;;;;;;;;;;;;;18.86;57.78;98817.22;2084070;28;19928;-51
2023/03/31 02:43:30;;;;;;;;;;;;;;;18.86;58.03;98832.50;2083254;28;19936;-53
2023/03/31 02:44:31;;;;;;;;;;;;;;;18.85;57.79;98831.69;2083322;28;19952;-49
2023/03/31 02:45:36;;;;;;;;;;;;;;;18.84;57.83;98824.66;2083471;28;19978;-53
2023/03/31 02:46:38;;;;;;;;;;;;;;;18.84;57.92;98830.03;2084013;28;20407;-54
2023/03/31 02:47:39;;;;;;;;;;;;;;;18.84;57.72;98832.72;2079573;28;19982;-56
2023/03/31 02:48:42;;;;;;;;;;;;;;;18.83;57.90;98836.41;2078338;28;20528;-49
2023/03/31 02:49:45;;;;;;;;;;;;;;;18.83;57.79;98835.59;2074725;28;21516;-54
2023/03/31 02:51:15;;;;;;;;;;;;;;;18.83;57.91;98832.91;2080784;28;20054;-57
2023/03/31 02:52:27;;;;;;;;;;;;;;;18.83;58.03;98828.34;2080330;28;19928;-52
2023/03/31 02:53:32;;;;;;;;;;;;;;;18.81;58.06;98819.69;2075197;28;21354;-54
2023/03/31 02:54:51;;;;;;;;;;;;;;;18.82;57.70;98820.50;2078679;28;21159;-51
2023/03/31 02:55:59;;;;;;;;;;;;;;;18.81;57.80;98818.84;2076604;28;20017;-56
2023/03/31 02:57:20;;;;;;;;;;;;;;;18.81;58.25;98822.38;2073793;28;19932;-54
2023/03/31 02:58:29;;;;;;;;;;;;;;;18.81;57.75;98825.06;2079103;28;19936;-55
2023/03/31 02:59:39;;;;;;;;;;;;;;;18.80;58.06;98825.25;2075392;28;19933;-55
2023/03/31 03:00:45;;;;;;;;;;;;;;;18.80;57.83;98828.75;2073481;28;19933;-52
2023/03/31 03:01:53;;;;;;;;;;;;;;;18.79;58.03;98832.47;2079165;28;19935;-54
2023/03/31 03:03:01;;;;;;;;;;;;;;;18.80;57.87;98825.25;2082074;27;19925;-52
2023/03/31 03:04:10;;;;;;;;;;;;;;;18.80;57.71;98839.50;2078137;28;19928;-50
2023/03/31 03:05:26;;;;;;;;;;;;;;;18.80;57.81;98841.38;2076243;28;19936;-55
2023/03/31 03:06:36;;;;;;;;;;;;;;;18.77;57.88;98849.81;2076908;28;20059;-56
2023/03/31 03:07:45;;;;;;;;;;;;;;;18.79;57.94;98853.97;2080840;28;21604;-56
2023/03/31 03:08:55;;;;;;;;;;;;;;;18.77;57.65;98844.44;2075393;28;19929;-51
2023/03/31 03:10:00;;;;;;;;;;;;;;;18.77;57.89;98853.34;2075795;28;20659;-49
2023/03/31 03:11:06;;;;;;;;;;;;;;;18.77;57.91;98847.97;2080298;28;19994;-56
2023/03/31 03:12:11;;;;;;;;;;;;;;;18.77;57.65;98845.28;2079686;28;19936;-56
2023/03/31 03:13:17;;;;;;;;;;;;;;;18.78;58.04;98840.72;2080576;28;21000;-54
2023/03/31 03:14:27;;;;;;;;;;;;;;;18.77;57.83;98844.44;2079663;28;19932;-56
2023/03/31 03:15:31;;;;;;;;;;;;;;;18.78;57.83;98846.09;2074915;28;19928;-55
2023/03/31 03:16:35;;;;;;;;;;;;;;;18.77;57.63;98858.72;2079936;28;20029;-55
2023/03/31 03:17:38;;;;;;;;;;;;;;;18.75;57.57;98853.56;2081604;28;20278;-54
2023/03/31 03:18:39;;;;;;;;;;;;;;;18.76;57.64;98854.38;2078825;28;19982;-56
2023/03/31 03:19:40;;;;;;;;;;;;;;;18.75;57.68;98850.03;2079720;28;20648;-55
2023/03/31 03:20:47;;;;;;;;;;;;;;;18.75;57.85;98844.66;2081313;28;19935;-56
2023/03/31 03:21:47;;;;;;;;;;;;;;;18.76;57.46;98849.00;2077367;28;19928;-55
2023/03/31 03:22:49;;;;;;;;;;;;;;;18.75;57.85;98848.19;2080936;28;20023;-54
2023/03/31 03:23:51;;;;;;;;;;;;;;;18.75;57.93;98847.34;2079577;28;21974;-49
2023/03/31 03:24:53;;;;;;;;;;;;;;;18.74;57.75;98845.69;2076143;28;19933;-55
2023/03/31 03:25:54;;;;;;;;;;;;;;;18.74;57.90;98849.19;2083791;28;19936;-56
2023/03/31 03:26:56;;;;;;;;;;;;;;;18.73;57.76;98850.19;2079647;28;20035;-54
2023/03/31 03:27:57;;;;;;;;;;;;;;;18.73;57.50;98852.06;2078360;28;19971;-54
2023/03/31 03:28:59;;;;;;;;;;;;;;;18.73;57.82;98849.38;2077339;28;19928;-54
2023/03/31 03:30:03;;;;;;;;;;;;;;;18.73;57.84;98847.50;2077404;28;20609;-53
2023/03/31 03:31:04;;;;;;;;;;;;;;;18.76;57.84;98843.63;2077229;28;20027;-53
2023/03/31 03:32:05;;;;;;;;;;;;;;;18.76;57.72;98843.63;2079525;28;20508;-54
2023/03/31 03:33:06;;;;;;;;;;;;;;;18.76;57.75;98835.56;2082911;28;19981;-53
2023/03/31 03:34:08;;;;;;;;;;;;;;;18.75;57.74;98832.06;2074814;28;19986;-56
2023/03/31 03:35:09;;;;;;;;;;;;;;;18.78;57.35;98835.34;2075787;28;19928;-53
2023/03/31 03:36:11;;;;;;;;;;;;;;;18.80;57.32;98834.13;2075086;28;19928;-54
2023/03/31 03:37:11;;;;;;;;;;;;;;;18.82;57.46;98818.63;2079857;28;20192;-51
2023/03/31 03:38:12;;;;;;;;;;;;;;;18.85;57.31;98822.78;2077780;28;19932;-55
2023/03/31 03:39:13;;;;;;;;;;;;;;;18.86;57.33;98811.00;2075951;28;20405;-52
2023/03/31 03:40:15;;;;;;;;;;;;;;;18.90;57.18;98806.91;2063899;28;19958;-51
2023/03/31 03:41:15;;;;;;;;;;;;;;;18.92;57.21;98796.78;2078537;28;19935;-51
2023/03/31 03:42:17;;;;;;;;;;;;;;;18.94;56.94;98792.88;2079961;28;19956;-55
2023/03/31 03:43:17;;;;;;;;;;;;;;;18.98;56.95;98786.03;2078468;28;20556;-54
2023/03/31 03:44:20;;;;;;;;;;;;;;;19.03;56.73;98785.44;2076470;28;19939;-57
2023/03/31 03:45:21;;;;;;;;;;;;;;;19.10;56.77;98783.59;2075611;28;20323;-51
2023/03/31 03:46:22;;;;;;;;;;;;;;;19.14;56.43;98787.53;2079382;28;19937;-52
2023/03/31 03:47:23;;;;;;;;;;;;;;;19.17;56.49;98789.00;2078056;28;20378;-56
2023/03/31 03:48:25;;;;;;;;;;;;;;;19.23;56.45;98790.88;2082441;28;19987;-56
2023/03/31 03:49:26;;;;;;;;;;;;;;;19.26;56.25;98790.44;2076446;28;19932;-53
2023/03/31 03:50:27;;;;;;;;;;;;;;;19.31;56.23;98795.22;2077195;28;20933;-55
2023/03/31 03:51:28;;;;;;;;;;;;;;;19.36;55.98;98798.97;2079541;28;19936;-54
2023/03/31 03:52:30;;;;;;;;;;;;;;;19.38;56.22;98798.75;2075893;28;19975;-54
2023/03/31 03:53:30;;;;;;;;;;;;;;;19.40;56.20;98794.81;2076583;28;20009;-57
2023/03/31 03:54:32;;;;;;;;;;;;;;;19.42;56.07;98803.50;2077725;28;20067;-52
2023/03/31 03:55:33;;;;;;;;;;;;;;;19.47;56.26;98799.38;2078514;28;19940;-54
2023/03/31 03:56:34;;;;;;;;;;;;;;;19.47;56.13;98808.25;2078225;28;19950;-51
2023/03/31 03:57:35;;;;;;;;;;;;;;;19.51;55.95;98800.63;2078897;28;19936;-52
2023/03/31 03:58:36;;;;;;;;;;;;;;;19.52;55.76;98810.34;2080312;28;22049;-54
2023/03/31 03:59:38;;;;;;;;;;;;;;;19.53;56.06;98807.47;2079405;28;20044;-52
2023/03/31 04:00:40;;;;;;;;;;;;;;;19.57;55.95;98811.38;2076978;28;19932;-55
2023/03/31 04:01:40;;;;;;;;;;;;;;;19.62;55.67;98810.78;2076722;28;19929;-51
2023/03/31 04:02:42;;;;;;;;;;;;;;;19.62;55.84;98808.09;2076675;28;19967;-53
2023/03/31 04:03:42;;;;;;;;;;;;;;;19.61;55.90;98809.97;2084536;28;19973;-52
2023/03/31 04:04:44;;;;;;;;;;;;;;;19.61;55.70;98804.56;2075628;28;19936;-56
2023/03/31 04:05:48;;;;;;;;;;;;;;;19.61;56.07;98803.72;2078256;28;19924;-53
2023/03/31 04:06:50;;;;;;;;;;;;;;;19.60;55.82;98802.91;2077677;28;20403;-51
2023/03/31 04:07:52;;;;;;;;;;;;;;;19.62;56.21;98805.41;2077804;28;19929;-52
2023/03/31 04:08:52;;;;;;;;;;;;;;;19.62;55.88;98800.03;2081169;28;19936;-52
2023/03/31 04:09:54;;;;;;;;;;;;;;;19.63;56.04;98799.78;2077024;28;19936;-56
2023/03/31 04:10:55;;;;;;;;;;;;;;;19.66;56.21;98808.53;2074273;28;20603;-54
2023/03/31 04:11:57;;;;;;;;;;;;;;;19.67;56.11;98804.78;2078246;28;19982;-55
2023/03/31 04:12:58;;;;;;;;;;;;;;;19.66;55.85;98806.66;2077586;28;19928;-52
2023/03/31 04:13:59;;;;;;;;;;;;;;;19.68;55.83;98809.16;2077198;28;19939;-53
2023/03/31 04:15:01;;;;;;;;;;;;;;;19.68;56.08;98809.16;2078328;28;20382;-55
2023/03/31 04:16:02;;;;;;;;;;;;;;;19.69;56.10;98808.94;2076886;28;20039;-51
2023/03/31 04:17:04;;;;;;;;;;;;;;;19.70;56.13;98812.47;2078432;28;19933;-57
2023/03/31 04:18:04;;;;;;;;;;;;;;;19.70;55.92;98810.63;2077767;28;20005;-51
2023/03/31 04:19:07;;;;;;;;;;;;;;;19.71;55.82;98811.44;2086644;28;19936;-56
2023/03/31 04:20:08;;;;;;;;;;;;;;;19.73;56.24;98814.75;2076419;28;20398;-52
2023/03/31 04:21:11;;;;;;;;;;;;;;;19.73;55.94;98815.59;2078123;28;19940;-55
2023/03/31 04:22:14;;;;;;;;;;;;;;;19.74;56.06;98813.72;2083814;28;19929;-52
2023/03/31 04:23:17;;;;;;;;;;;;;;;19.75;55.95;98812.66;2077143;28;19971;-54
2023/03/31 04:24:20;;;;;;;;;;;;;;;19.77;55.81;98802.53;2083309;28;19928;-51
2023/03/31 04:25:22;;;;;;;;;;;;;;;19.78;55.81;98804.19;2082005;28;19939;-53
2023/03/31 04:26:29;;;;;;;;;;;;;;;19.76;55.50;98795.50;2078116;28;20011;-50
2023/03/31 04:27:32;;;;;;;;;;;;;;;19.77;55.79;98784.50;2083362;28;19928;-52
2023/03/31 04:28:33;;;;;;;;;;;;;;;19.76;55.68;98792.81;2085193;28;20028;-53
2023/03/31 04:29:36;;;;;;;;;;;;;;;19.78;55.72;98788.03;2083058;28;19928;-54
2023/03/31 04:30:38;;;;;;;;;;;;;;;19.76;55.78;98796.31;2083709;28;19955;-51
2023/03/31 04:31:41;;;;;;;;;;;;;;;19.76;55.47;98796.31;2086219;28;21098;-52
2023/03/31 04:32:41;;;;;;;;;;;;;;;19.78;55.77;98799.66;2086346;28;19936;-51
2023/03/31 04:33:44;;;;;;;;;;;;;;;19.81;55.65;98793.03;2086931;28;19936;-54
2023/03/31 04:34:45;;;;;;;;;;;;;;;19.81;55.58;98791.16;2085804;28;20422;-51
2023/03/31 04:35:51;;;;;;;;;;;;;;;19.81;55.80;98793.84;2088116;28;19935;-54
2023/03/31 04:36:54;;;;;;;;;;;;;;;19.82;55.44;98790.09;2087017;28;20011;-51
2023/03/31 04:37:57;;;;;;;;;;;;;;;19.82;55.73;98783.91;2085096;28;20023;-53
2023/03/31 04:38:58;;;;;;;;;;;;;;;19.81;55.64;98788.47;2085687;28;19951;-53
2023/03/31 04:40:07;;;;;;;;;;;;;;;19.80;55.66;98789.47;2085865;28;20844;-51
2023/03/31 04:41:07;;;;;;;;;;;;;;;19.81;55.83;98793.84;2084765;28;19936;-50
2023/03/31 04:42:09;;;;;;;;;;;;;;;19.81;55.71;98788.47;2086029;28;20457;-54
2023/03/31 04:43:09;;;;;;;;;;;;;;;19.83;55.49;98782.84;2084968;28;19997;-50
2023/03/31 04:44:11;;;;;;;;;;;;;;;19.82;55.65;98779.34;2087051;28;19933;-53
2023/03/31 04:45:12;;;;;;;;;;;;;;;19.83;55.70;98772.91;2077395;28;19970;-54
2023/03/31 04:46:14;;;;;;;;;;;;;;;19.83;55.59;98786.38;2079120;28;19933;-54
2023/03/31 04:47:16;;;;;;;;;;;;;;;19.82;55.52;98784.72;2079982;28;19971;-56
2023/03/31 04:48:16;;;;;;;;;;;;;;;19.84;55.53;98790.75;2077883;28;19977;-52
2023/03/31 04:49:17;;;;;;;;;;;;;;;19.84;55.27;98793.44;2077059;28;19995;-60
2023/03/31 04:50:18;;;;;;;;;;;;;;;19.84;55.63;98795.28;2081903;28;20026;-55
2023/03/31 04:51:20;;;;;;;;;;;;;;;19.84;55.69;98796.13;2074755;28;19936;-58
2023/03/31 04:52:20;;;;;;;;;;;;;;;19.84;55.65;98796.13;2075076;28;19932;-58
2023/03/31 04:53:22;;;;;;;;;;;;;;;19.85;55.60;98799.63;2076383;28;20020;-56
2023/03/31 04:54:23;;;;;;;;;;;;;;;19.85;55.37;98794.25;2074952;28;20417;-57
2023/03/31 04:55:24;;;;;;;;;;;;;;;19.82;55.54;98790.09;2078698;28;20015;-54
2023/03/31 04:56:26;;;;;;;;;;;;;;;19.81;55.54;98780.38;2079097;28;19928;-54
2023/03/31 04:57:26;;;;;;;;;;;;;;;19.83;55.41;98780.97;2079131;28;20313;-52
2023/03/31 04:58:28;;;;;;;;;;;;;;;19.84;55.54;98768.38;2079248;28;19932;-56
2023/03/31 04:59:32;;;;;;;;;;;;;;;19.85;55.58;98761.94;2076380;28;19931;-58
2023/03/31 05:00:33;;;;;;;;;;;;;;;19.83;55.60;98764.00;2076761;28;19929;-52
2023/03/31 05:01:36;;;;;;;;;;;;;;;19.83;55.58;98767.53;2076652;28;19940;-52
2023/03/31 05:02:37;;;;;;;;;;;;;;;19.81;55.58;98761.53;2079159;28;19925;-51
2023/03/31 05:03:38;;;;;;;;;;;;;;;19.83;55.67;98766.72;2076858;28;19940;-50
2023/03/31 05:04:40;;;;;;;;;;;;;;;19.83;55.24;98764.84;2073553;28;19932;-51
2023/03/31 05:05:40;;;;;;;;;;;;;;;19.83;55.50;98758.63;2080712;28;19932;-53
2023/03/31 05:06:41;;;;;;;;;;;;;;;19.82;55.37;98765.88;2078808;28;19971;-52
2023/03/31 05:07:42;;;;;;;;;;;;;;;19.82;55.15;98765.88;2078062;28;19934;-53
2023/03/31 05:08:44;;;;;;;;;;;;;;;19.81;55.40;98764.25;2093428;28;19927;-50
2023/03/31 05:09:45;;;;;;;;;;;;;;;19.81;55.39;98755.34;2085672;28;20067;-54
2023/03/31 05:10:46;;;;;;;;;;;;;;;19.81;55.45;98756.16;2080386;28;20632;-52
2023/03/31 05:11:47;;;;;;;;;;;;;;;19.81;55.63;98758.84;2080052;28;19941;-52
2023/03/31 05:12:49;;;;;;;;;;;;;;;19.81;55.58;98750.78;2076247;28;19936;-52
2023/03/31 05:13:49;;;;;;;;;;;;;;;19.81;55.35;98749.97;2079342;28;19928;-51
2023/03/31 05:14:51;;;;;;;;;;;;;;;19.80;55.34;98748.28;2077244;28;19932;-53
2023/03/31 05:15:51;;;;;;;;;;;;;;;19.79;55.34;98744.78;2079515;28;20406;-51
2023/03/31 05:16:56;;;;;;;;;;;;;;;19.79;55.47;98742.09;2079245;28;19955;-53
2023/03/31 05:17:57;;;;;;;;;;;;;;;19.80;55.53;98743.72;2077327;28;19960;-54
2023/03/31 05:18:58;;;;;;;;;;;;;;;19.78;55.60;98740.44;2078939;28;19963;-54
2023/03/31 05:19:59;;;;;;;;;;;;;;;19.78;55.38;98740.44;2078329;28;19941;-53
2023/03/31 05:21:08;;;;;;;;;;;;;;;19.79;55.60;98746.63;2074454;28;21284;-53
2023/03/31 05:22:08;;;;;;;;;;;;;;;19.77;55.51;98752.22;2073593;28;19971;-53
2023/03/31 05:23:10;;;;;;;;;;;;;;;19.79;55.58;98746.63;2079357;28;19940;-54
2023/03/31 05:24:10;;;;;;;;;;;;;;;19.75;55.63;98742.69;2077415;28;20628;-53
2023/03/31 05:25:17;;;;;;;;;;;;;;;19.75;55.55;98748.94;2074257;28;19933;-53
2023/03/31 05:26:18;;;;;;;;;;;;;;;19.75;55.38;98745.38;2070548;28;19928;-54
2023/03/31 05:27:20;;;;;;;;;;;;;;;19.75;55.46;98745.38;2079848;28;19925;-54
2023/03/31 05:28:21;;;;;;;;;;;;;;;19.74;55.35;98744.56;2082076;28;20031;-53
2023/03/31 05:29:22;;;;;;;;;;;;;;;19.75;55.67;98746.25;2081705;27;19928;-53
2023/03/31 05:30:25;;;;;;;;;;;;;;;19.73;55.54;98732.16;2086063;28;19928;-53
2023/03/31 05:31:26;;;;;;;;;;;;;;;19.72;55.69;98719.72;2087483;28;20031;-54
2023/03/31 05:32:28;;;;;;;;;;;;;;;19.72;55.41;98725.09;2085311;28;19932;-53